sensor_id;sensor_type;location;lat;lon;timestamp;P1;durP1;ratioP1;P2;durP2;ratioP2
23146;SDS011;11742;53.532;-1.478;2023-09-19T00:01:20;1.08;;;0.70;;
23146;SDS011;11742;53.532;-1.478;2023-09-19T00:04:04;1.95;;;0.80;;
23146;SDS011;11742;53.532;-1.478;2023-09-19T00:06:53;3.95;;;0.70;;
23146;SDS011;11742;53.532;-1.478;2023-09-19T00:09:38;1.63;;;0.65;;
23146;SDS011;11742;53.532;-1.478;2023-09-19T00:12:22;3.70;;;1.00;;
23146;SDS011;11742;53.532;-1.478;2023-09-19T00:15:08;2.10;;;0.77;;
23146;SDS011;11742;53.532;-1.478;2023-09-19T00:17:54;2.15;;;1.27;;
23146;SDS011;11742;53.532;-1.478;2023-09-19T00:20:39;1.77;;;0.70;;
23146;SDS011;11742;53.532;-1.478;2023-09-19T00:23:26;2.00;;;0.80;;
23146;SDS011;11742;53.532;-1.478;2023-09-19T00:26:11;1.85;;;0.70;;
23146;SDS011;11742;53.532;-1.478;2023-09-19T00:28:56;0.90;;;0.63;;
23146;SDS011;11742;53.532;-1.478;2023-09-19T00:31:40;1.55;;;1.00;;
23146;SDS011;11742;53.532;-1.478;2023-09-19T00:34:27;3.17;;;1.00;;
23146;SDS011;11742;53.532;-1.478;2023-09-19T00:37:11;1.75;;;0.80;;
23146;SDS011;11742;53.532;-1.478;2023-09-19T00:39:56;2.05;;;0.80;;
23146;SDS011;11742;53.532;-1.478;2023-09-19T00:42:41;1.48;;;0.73;;
23146;SDS011;11742;53.532;-1.478;2023-09-19T00:45:29;1.23;;;0.65;;
23146;SDS011;11742;53.532;-1.478;2023-09-19T00:48:14;2.53;;;0.77;;
23146;SDS011;11742;53.532;-1.478;2023-09-19T00:51:02;1.63;;;0.70;;
23146;SDS011;11742;53.532;-1.478;2023-09-19T00:53:48;3.58;;;0.90;;
23146;SDS011;11742;53.532;-1.478;2023-09-19T00:56:33;2.33;;;0.70;;
23146;SDS011;11742;53.532;-1.478;2023-09-19T00:59:17;1.83;;;0.70;;
23146;SDS011;11742;53.532;-1.478;2023-09-19T01:02:02;2.47;;;0.70;;
23146;SDS011;11742;53.532;-1.478;2023-09-19T01:04:47;2.15;;;0.77;;
23146;SDS011;11742;53.532;-1.478;2023-09-19T01:07:32;2.45;;;0.50;;
23146;SDS011;11742;53.532;-1.478;2023-09-19T01:10:20;1.52;;;0.60;;
23146;SDS011;11742;53.532;-1.478;2023-09-19T01:13:06;1.95;;;0.60;;
23146;SDS011;11742;53.532;-1.478;2023-09-19T01:16:07;2.45;;;0.80;;
23146;SDS011;11742;53.532;-1.478;2023-09-19T01:22:13;1.60;;;0.80;;
23146;SDS011;11742;53.532;-1.478;2023-09-19T01:31:13;3.55;;;1.00;;
23146;SDS011;11742;53.532;-1.478;2023-09-19T01:34:02;1.92;;;0.70;;
23146;SDS011;11742;53.532;-1.478;2023-09-19T01:36:50;3.83;;;0.80;;
23146;SDS011;11742;53.532;-1.478;2023-09-19T01:39:34;2.47;;;0.73;;
23146;SDS011;11742;53.532;-1.478;2023-09-19T01:42:31;2.30;;;0.90;;
23146;SDS011;11742;53.532;-1.478;2023-09-19T01:48:25;3.35;;;0.93;;
23146;SDS011;11742;53.532;-1.478;2023-09-19T01:51:14;6.90;;;1.60;;
23146;SDS011;11742;53.532;-1.478;2023-09-19T01:54:09;4.63;;;0.90;;
23146;SDS011;11742;53.532;-1.478;2023-09-19T02:00:07;2.60;;;1.20;;
23146;SDS011;11742;53.532;-1.478;2023-09-19T02:02:55;2.35;;;0.90;;
23146;SDS011;11742;53.532;-1.478;2023-09-19T02:05:47;2.58;;;1.08;;
23146;SDS011;11742;53.532;-1.478;2023-09-19T02:08:33;3.95;;;0.98;;
23146;SDS011;11742;53.532;-1.478;2023-09-19T02:11:18;3.13;;;1.00;;
23146;SDS011;11742;53.532;-1.478;2023-09-19T02:14:02;3.03;;;1.13;;
23146;SDS011;11742;53.532;-1.478;2023-09-19T02:16:48;2.10;;;0.75;;
23146;SDS011;11742;53.532;-1.478;2023-09-19T02:19:34;3.15;;;1.00;;
23146;SDS011;11742;53.532;-1.478;2023-09-19T02:22:18;2.13;;;1.00;;
23146;SDS011;11742;53.532;-1.478;2023-09-19T02:25:03;1.88;;;0.85;;
23146;SDS011;11742;53.532;-1.478;2023-09-19T02:27:48;4.90;;;1.40;;
23146;SDS011;11742;53.532;-1.478;2023-09-19T02:30:32;2.55;;;1.00;;
23146;SDS011;11742;53.532;-1.478;2023-09-19T02:33:16;4.68;;;1.02;;
23146;SDS011;11742;53.532;-1.478;2023-09-19T02:36:01;2.72;;;1.05;;
23146;SDS011;11742;53.532;-1.478;2023-09-19T02:38:48;2.45;;;1.02;;
23146;SDS011;11742;53.532;-1.478;2023-09-19T02:41:33;4.97;;;1.23;;
23146;SDS011;11742;53.532;-1.478;2023-09-19T02:44:17;6.65;;;1.20;;
23146;SDS011;11742;53.532;-1.478;2023-09-19T02:47:04;5.53;;;1.48;;
23146;SDS011;11742;53.532;-1.478;2023-09-19T02:49:48;4.80;;;1.38;;
23146;SDS011;11742;53.532;-1.478;2023-09-19T02:52:32;4.95;;;1.25;;
23146;SDS011;11742;53.532;-1.478;2023-09-19T02:55:18;3.08;;;0.85;;
23146;SDS011;11742;53.532;-1.478;2023-09-19T02:58:03;3.80;;;1.40;;
23146;SDS011;11742;53.532;-1.478;2023-09-19T03:00:51;5.10;;;1.33;;
23146;SDS011;11742;53.532;-1.478;2023-09-19T03:03:35;6.95;;;1.50;;
23146;SDS011;11742;53.532;-1.478;2023-09-19T03:06:21;3.70;;;1.30;;
23146;SDS011;11742;53.532;-1.478;2023-09-19T03:09:07;4.88;;;1.23;;
23146;SDS011;11742;53.532;-1.478;2023-09-19T03:11:57;3.08;;;1.10;;
23146;SDS011;11742;53.532;-1.478;2023-09-19T03:14:43;6.78;;;1.27;;
23146;SDS011;11742;53.532;-1.478;2023-09-19T03:17:27;6.28;;;1.30;;
23146;SDS011;11742;53.532;-1.478;2023-09-19T03:20:12;4.60;;;1.20;;
23146;SDS011;11742;53.532;-1.478;2023-09-19T03:22:58;3.92;;;1.33;;
23146;SDS011;11742;53.532;-1.478;2023-09-19T03:25:43;6.20;;;1.77;;
23146;SDS011;11742;53.532;-1.478;2023-09-19T03:28:27;6.65;;;1.63;;
23146;SDS011;11742;53.532;-1.478;2023-09-19T03:31:11;4.45;;;1.20;;
23146;SDS011;11742;53.532;-1.478;2023-09-19T03:33:55;3.15;;;1.10;;
23146;SDS011;11742;53.532;-1.478;2023-09-19T03:36:39;6.68;;;1.40;;
23146;SDS011;11742;53.532;-1.478;2023-09-19T03:39:24;3.45;;;1.30;;
23146;SDS011;11742;53.532;-1.478;2023-09-19T03:42:08;4.90;;;1.25;;
23146;SDS011;11742;53.532;-1.478;2023-09-19T03:44:53;4.88;;;1.52;;
23146;SDS011;11742;53.532;-1.478;2023-09-19T03:47:38;6.28;;;1.38;;
23146;SDS011;11742;53.532;-1.478;2023-09-19T03:50:24;7.10;;;1.27;;
23146;SDS011;11742;53.532;-1.478;2023-09-19T03:53:08;3.88;;;1.20;;
23146;SDS011;11742;53.532;-1.478;2023-09-19T03:55:52;3.95;;;1.13;;
23146;SDS011;11742;53.532;-1.478;2023-09-19T03:58:36;5.72;;;1.65;;
23146;SDS011;11742;53.532;-1.478;2023-09-19T04:01:23;6.65;;;1.67;;
23146;SDS011;11742;53.532;-1.478;2023-09-19T04:04:08;6.82;;;1.70;;
23146;SDS011;11742;53.532;-1.478;2023-09-19T04:06:52;5.78;;;1.30;;
23146;SDS011;11742;53.532;-1.478;2023-09-19T04:12:21;5.72;;;1.35;;
23146;SDS011;11742;53.532;-1.478;2023-09-19T04:15:06;4.80;;;1.20;;
23146;SDS011;11742;53.532;-1.478;2023-09-19T04:17:51;3.92;;;1.52;;
23146;SDS011;11742;53.532;-1.478;2023-09-19T04:20:35;4.03;;;1.60;;
23146;SDS011;11742;53.532;-1.478;2023-09-19T04:23:19;6.35;;;1.60;;
23146;SDS011;11742;53.532;-1.478;2023-09-19T04:26:04;5.55;;;1.40;;
23146;SDS011;11742;53.532;-1.478;2023-09-19T04:28:48;5.43;;;1.45;;
23146;SDS011;11742;53.532;-1.478;2023-09-19T04:31:33;5.57;;;1.60;;
23146;SDS011;11742;53.532;-1.478;2023-09-19T04:34:17;3.50;;;1.23;;
23146;SDS011;11742;53.532;-1.478;2023-09-19T04:37:02;6.07;;;1.40;;
23146;SDS011;11742;53.532;-1.478;2023-09-19T04:39:47;3.55;;;1.25;;
23146;SDS011;11742;53.532;-1.478;2023-09-19T04:42:31;5.18;;;1.38;;
23146;SDS011;11742;53.532;-1.478;2023-09-19T04:45:15;3.08;;;1.30;;
23146;SDS011;11742;53.532;-1.478;2023-09-19T04:48:00;4.95;;;1.35;;
23146;SDS011;11742;53.532;-1.478;2023-09-19T04:50:48;4.63;;;1.17;;
23146;SDS011;11742;53.532;-1.478;2023-09-19T04:53:32;5.18;;;1.17;;
23146;SDS011;11742;53.532;-1.478;2023-09-19T04:56:17;2.40;;;0.98;;
23146;SDS011;11742;53.532;-1.478;2023-09-19T04:59:02;4.03;;;1.67;;
23146;SDS011;11742;53.532;-1.478;2023-09-19T05:01:48;4.95;;;1.10;;
23146;SDS011;11742;53.532;-1.478;2023-09-19T05:04:32;2.22;;;0.90;;
23146;SDS011;11742;53.532;-1.478;2023-09-19T05:07:16;3.20;;;1.30;;
23146;SDS011;11742;53.532;-1.478;2023-09-19T05:10:01;3.03;;;1.10;;
23146;SDS011;11742;53.532;-1.478;2023-09-19T05:12:49;4.10;;;1.60;;
23146;SDS011;11742;53.532;-1.478;2023-09-19T05:15:37;2.05;;;1.08;;
23146;SDS011;11742;53.532;-1.478;2023-09-19T05:18:21;2.90;;;1.00;;
23146;SDS011;11742;53.532;-1.478;2023-09-19T05:21:05;2.55;;;1.02;;
23146;SDS011;11742;53.532;-1.478;2023-09-19T05:23:51;4.28;;;1.10;;
23146;SDS011;11742;53.532;-1.478;2023-09-19T05:26:36;3.55;;;1.10;;
23146;SDS011;11742;53.532;-1.478;2023-09-19T05:29:20;3.50;;;1.48;;
23146;SDS011;11742;53.532;-1.478;2023-09-19T05:32:04;2.95;;;1.08;;
23146;SDS011;11742;53.532;-1.478;2023-09-19T05:34:49;4.45;;;1.67;;
23146;SDS011;11742;53.532;-1.478;2023-09-19T05:37:36;5.35;;;1.40;;
23146;SDS011;11742;53.532;-1.478;2023-09-19T05:40:21;3.67;;;1.30;;
23146;SDS011;11742;53.532;-1.478;2023-09-19T05:43:05;3.70;;;1.20;;
23146;SDS011;11742;53.532;-1.478;2023-09-19T05:45:50;5.88;;;1.33;;
23146;SDS011;11742;53.532;-1.478;2023-09-19T05:48:40;3.85;;;1.42;;
23146;SDS011;11742;53.532;-1.478;2023-09-19T05:51:25;5.10;;;1.25;;
23146;SDS011;11742;53.532;-1.478;2023-09-19T05:54:12;6.32;;;1.38;;
23146;SDS011;11742;53.532;-1.478;2023-09-19T05:56:57;2.95;;;1.25;;
23146;SDS011;11742;53.532;-1.478;2023-09-19T05:59:41;2.63;;;1.00;;
23146;SDS011;11742;53.532;-1.478;2023-09-19T06:02:27;4.20;;;1.33;;
23146;SDS011;11742;53.532;-1.478;2023-09-19T06:05:13;4.13;;;1.10;;
23146;SDS011;11742;53.532;-1.478;2023-09-19T06:07:59;3.92;;;1.20;;
23146;SDS011;11742;53.532;-1.478;2023-09-19T06:10:43;3.13;;;1.00;;
23146;SDS011;11742;53.532;-1.478;2023-09-19T06:13:28;2.88;;;1.10;;
23146;SDS011;11742;53.532;-1.478;2023-09-19T06:16:12;6.22;;;1.35;;
23146;SDS011;11742;53.532;-1.478;2023-09-19T06:18:56;6.38;;;1.40;;
23146;SDS011;11742;53.532;-1.478;2023-09-19T06:21:41;2.78;;;1.10;;
23146;SDS011;11742;53.532;-1.478;2023-09-19T06:24:26;4.45;;;1.00;;
23146;SDS011;11742;53.532;-1.478;2023-09-19T06:27:10;2.90;;;1.10;;
23146;SDS011;11742;53.532;-1.478;2023-09-19T06:29:54;1.40;;;0.88;;
23146;SDS011;11742;53.532;-1.478;2023-09-19T06:32:38;2.58;;;0.90;;
23146;SDS011;11742;53.532;-1.478;2023-09-19T06:35:25;3.45;;;1.20;;
23146;SDS011;11742;53.532;-1.478;2023-09-19T06:38:10;1.42;;;0.90;;
23146;SDS011;11742;53.532;-1.478;2023-09-19T06:40:56;1.60;;;0.90;;
23146;SDS011;11742;53.532;-1.478;2023-09-19T06:43:41;1.75;;;0.80;;
23146;SDS011;11742;53.532;-1.478;2023-09-19T06:46:26;2.78;;;0.90;;
23146;SDS011;11742;53.532;-1.478;2023-09-19T06:49:16;3.58;;;1.23;;
23146;SDS011;11742;53.532;-1.478;2023-09-19T06:52:01;1.35;;;0.90;;
23146;SDS011;11742;53.532;-1.478;2023-09-19T06:54:46;2.83;;;1.27;;
23146;SDS011;11742;53.532;-1.478;2023-09-19T06:57:31;2.63;;;1.10;;
23146;SDS011;11742;53.532;-1.478;2023-09-19T07:00:16;3.92;;;0.90;;
23146;SDS011;11742;53.532;-1.478;2023-09-19T07:03:06;1.90;;;1.10;;
23146;SDS011;11742;53.532;-1.478;2023-09-19T07:05:54;2.45;;;1.33;;
23146;SDS011;11742;53.532;-1.478;2023-09-19T07:08:39;3.38;;;1.02;;
23146;SDS011;11742;53.532;-1.478;2023-09-19T07:11:23;2.25;;;0.90;;
23146;SDS011;11742;53.532;-1.478;2023-09-19T07:14:08;2.50;;;0.90;;
23146;SDS011;11742;53.532;-1.478;2023-09-19T07:16:55;3.58;;;1.13;;
23146;SDS011;11742;53.532;-1.478;2023-09-19T07:19:39;4.15;;;0.95;;
23146;SDS011;11742;53.532;-1.478;2023-09-19T07:22:24;3.53;;;1.15;;
23146;SDS011;11742;53.532;-1.478;2023-09-19T07:25:10;2.75;;;1.13;;
23146;SDS011;11742;53.532;-1.478;2023-09-19T07:27:55;2.35;;;0.93;;
23146;SDS011;11742;53.532;-1.478;2023-09-19T07:30:44;3.38;;;1.17;;
23146;SDS011;11742;53.532;-1.478;2023-09-19T07:33:28;4.53;;;1.25;;
23146;SDS011;11742;53.532;-1.478;2023-09-19T07:36:12;4.45;;;1.33;;
23146;SDS011;11742;53.532;-1.478;2023-09-19T07:38:57;4.47;;;1.40;;
23146;SDS011;11742;53.532;-1.478;2023-09-19T07:41:41;4.28;;;1.95;;
23146;SDS011;11742;53.532;-1.478;2023-09-19T07:44:25;2.85;;;1.48;;
23146;SDS011;11742;53.532;-1.478;2023-09-19T07:47:10;3.50;;;1.33;;
23146;SDS011;11742;53.532;-1.478;2023-09-19T07:49:54;2.25;;;1.10;;
23146;SDS011;11742;53.532;-1.478;2023-09-19T07:52:39;3.83;;;1.30;;
23146;SDS011;11742;53.532;-1.478;2023-09-19T07:55:23;2.38;;;0.98;;
23146;SDS011;11742;53.532;-1.478;2023-09-19T07:58:09;5.95;;;1.58;;
23146;SDS011;11742;53.532;-1.478;2023-09-19T08:00:53;3.53;;;1.50;;
23146;SDS011;11742;53.532;-1.478;2023-09-19T08:03:37;2.50;;;1.00;;
23146;SDS011;11742;53.532;-1.478;2023-09-19T08:06:26;4.00;;;1.50;;
23146;SDS011;11742;53.532;-1.478;2023-09-19T08:09:14;5.53;;;1.55;;
23146;SDS011;11742;53.532;-1.478;2023-09-19T08:12:04;3.42;;;1.45;;
23146;SDS011;11742;53.532;-1.478;2023-09-19T08:14:51;2.83;;;1.20;;
23146;SDS011;11742;53.532;-1.478;2023-09-19T08:17:35;3.65;;;1.13;;
23146;SDS011;11742;53.532;-1.478;2023-09-19T08:20:19;3.38;;;1.20;;
23146;SDS011;11742;53.532;-1.478;2023-09-19T08:23:04;2.78;;;1.00;;
23146;SDS011;11742;53.532;-1.478;2023-09-19T08:25:49;1.52;;;1.10;;
23146;SDS011;11742;53.532;-1.478;2023-09-19T08:28:34;5.88;;;1.20;;
23146;SDS011;11742;53.532;-1.478;2023-09-19T08:31:19;6.70;;;1.30;;
23146;SDS011;11742;53.532;-1.478;2023-09-19T08:34:03;3.47;;;1.00;;
23146;SDS011;11742;53.532;-1.478;2023-09-19T08:36:47;4.00;;;1.23;;
23146;SDS011;11742;53.532;-1.478;2023-09-19T08:39:32;3.50;;;1.30;;
23146;SDS011;11742;53.532;-1.478;2023-09-19T08:42:17;2.58;;;1.00;;
23146;SDS011;11742;53.532;-1.478;2023-09-19T08:45:03;2.15;;;1.02;;
23146;SDS011;11742;53.532;-1.478;2023-09-19T08:47:51;1.45;;;1.00;;
23146;SDS011;11742;53.532;-1.478;2023-09-19T08:51:00;2.70;;;0.85;;
23146;SDS011;11742;53.532;-1.478;2023-09-19T08:54:03;3.58;;;0.90;;
23146;SDS011;11742;53.532;-1.478;2023-09-19T08:56:50;0.88;;;0.73;;
23146;SDS011;11742;53.532;-1.478;2023-09-19T08:59:37;1.05;;;0.77;;
23146;SDS011;11742;53.532;-1.478;2023-09-19T09:02:26;2.58;;;0.90;;
23146;SDS011;11742;53.532;-1.478;2023-09-19T09:05:11;1.10;;;0.98;;
23146;SDS011;11742;53.532;-1.478;2023-09-19T09:07:56;2.63;;;1.02;;
23146;SDS011;11742;53.532;-1.478;2023-09-19T09:10:44;1.35;;;0.80;;
23146;SDS011;11742;53.532;-1.478;2023-09-19T09:13:28;0.60;;;0.60;;
23146;SDS011;11742;53.532;-1.478;2023-09-19T09:16:13;2.00;;;0.95;;
23146;SDS011;11742;53.532;-1.478;2023-09-19T09:19:02;50.85;;;3.00;;
23146;SDS011;11742;53.532;-1.478;2023-09-19T09:21:46;47.20;;;3.42;;
23146;SDS011;11742;53.532;-1.478;2023-09-19T09:24:31;13.68;;;1.75;;
23146;SDS011;11742;53.532;-1.478;2023-09-19T09:27:19;4.20;;;0.93;;
23146;SDS011;11742;53.532;-1.478;2023-09-19T09:30:07;4.22;;;0.60;;
23146;SDS011;11742;53.532;-1.478;2023-09-19T09:33:01;3.05;;;0.60;;
23146;SDS011;11742;53.532;-1.478;2023-09-19T09:35:55;1.08;;;0.57;;
23146;SDS011;11742;53.532;-1.478;2023-09-19T09:38:43;1.80;;;0.43;;
23146;SDS011;11742;53.532;-1.478;2023-09-19T09:41:38;0.80;;;0.47;;
23146;SDS011;11742;53.532;-1.478;2023-09-19T09:44:23;8.90;;;1.02;;
23146;SDS011;11742;53.532;-1.478;2023-09-19T09:47:07;2.38;;;0.40;;
23146;SDS011;11742;53.532;-1.478;2023-09-19T09:50:10;0.50;;;0.50;;
23146;SDS011;11742;53.532;-1.478;2023-09-19T09:53:01;0.85;;;0.40;;
23146;SDS011;11742;53.532;-1.478;2023-09-19T09:58:53;0.50;;;0.43;;
23146;SDS011;11742;53.532;-1.478;2023-09-19T10:01:48;1.02;;;0.50;;
23146;SDS011;11742;53.532;-1.478;2023-09-19T10:04:32;2.05;;;0.50;;
23146;SDS011;11742;53.532;-1.478;2023-09-19T10:07:30;4.05;;;0.63;;
23146;SDS011;11742;53.532;-1.478;2023-09-19T10:10:33;0.45;;;0.40;;
23146;SDS011;11742;53.532;-1.478;2023-09-19T10:13:42;1.25;;;0.45;;
23146;SDS011;11742;53.532;-1.478;2023-09-19T10:16:30;1.13;;;0.47;;
23146;SDS011;11742;53.532;-1.478;2023-09-19T10:19:20;0.82;;;0.40;;
23146;SDS011;11742;53.532;-1.478;2023-09-19T10:22:08;0.82;;;0.30;;
23146;SDS011;11742;53.532;-1.478;2023-09-19T10:24:53;0.30;;;0.30;;
23146;SDS011;11742;53.532;-1.478;2023-09-19T10:27:40;0.35;;;0.30;;
23146;SDS011;11742;53.532;-1.478;2023-09-19T10:30:26;0.17;;;0.17;;
23146;SDS011;11742;53.532;-1.478;2023-09-19T10:33:13;0.30;;;0.30;;
23146;SDS011;11742;53.532;-1.478;2023-09-19T10:36:00;0.20;;;0.20;;
23146;SDS011;11742;53.532;-1.478;2023-09-19T10:38:45;0.90;;;0.30;;
23146;SDS011;11742;53.532;-1.478;2023-09-19T10:41:34;1.58;;;0.30;;
23146;SDS011;11742;53.532;-1.478;2023-09-19T10:44:21;1.50;;;0.73;;
23146;SDS011;11742;53.532;-1.478;2023-09-19T10:47:09;0.20;;;0.20;;
23146;SDS011;11742;53.532;-1.478;2023-09-19T10:49:53;0.20;;;0.20;;
23146;SDS011;11742;53.532;-1.478;2023-09-19T10:52:39;3.10;;;0.20;;
23146;SDS011;11742;53.532;-1.478;2023-09-19T10:55:26;0.20;;;0.17;;
23146;SDS011;11742;53.532;-1.478;2023-09-19T10:58:12;0.40;;;0.28;;
23146;SDS011;11742;53.532;-1.478;2023-09-19T11:01:12;0.47;;;0.20;;
23146;SDS011;11742;53.532;-1.478;2023-09-19T11:04:20;0.40;;;0.28;;
23146;SDS011;11742;53.532;-1.478;2023-09-19T11:07:09;0.20;;;0.20;;
23146;SDS011;11742;53.532;-1.478;2023-09-19T11:09:58;0.28;;;0.28;;
23146;SDS011;11742;53.532;-1.478;2023-09-19T11:27:09;0.20;;;0.10;;
23146;SDS011;11742;53.532;-1.478;2023-09-19T11:30:44;0.20;;;0.20;;
23146;SDS011;11742;53.532;-1.478;2023-09-19T11:36:15;0.20;;;0.20;;
23146;SDS011;11742;53.532;-1.478;2023-09-19T11:39:03;0.17;;;0.10;;
23146;SDS011;11742;53.532;-1.478;2023-09-19T11:41:52;0.22;;;0.20;;
23146;SDS011;11742;53.532;-1.478;2023-09-19T11:44:40;0.10;;;0.10;;
23146;SDS011;11742;53.532;-1.478;2023-09-19T11:47:24;0.17;;;0.10;;
23146;SDS011;11742;53.532;-1.478;2023-09-19T11:50:09;0.55;;;0.20;;
23146;SDS011;11742;53.532;-1.478;2023-09-19T11:52:55;0.28;;;0.20;;
23146;SDS011;11742;53.532;-1.478;2023-09-19T11:55:40;0.20;;;0.15;;
23146;SDS011;11742;53.532;-1.478;2023-09-19T11:58:28;0.10;;;0.10;;
23146;SDS011;11742;53.532;-1.478;2023-09-19T12:01:13;0.10;;;0.10;;
23146;SDS011;11742;53.532;-1.478;2023-09-19T12:04:04;0.30;;;0.10;;
23146;SDS011;11742;53.532;-1.478;2023-09-19T12:06:56;0.10;;;0.10;;
23146;SDS011;11742;53.532;-1.478;2023-09-19T12:09:44;0.10;;;0.10;;
23146;SDS011;11742;53.532;-1.478;2023-09-19T12:12:33;0.88;;;0.20;;
23146;SDS011;11742;53.532;-1.478;2023-09-19T12:15:22;0.17;;;0.17;;
23146;SDS011;11742;53.532;-1.478;2023-09-19T12:21:31;0.95;;;0.20;;
23146;SDS011;11742;53.532;-1.478;2023-09-19T12:24:18;0.40;;;0.40;;
23146;SDS011;11742;53.532;-1.478;2023-09-19T12:27:03;0.52;;;0.30;;
23146;SDS011;11742;53.532;-1.478;2023-09-19T12:29:49;0.30;;;0.10;;
23146;SDS011;11742;53.532;-1.478;2023-09-19T12:32:34;0.32;;;0.20;;
23146;SDS011;11742;53.532;-1.478;2023-09-19T12:35:30;0.38;;;0.10;;
23146;SDS011;11742;53.532;-1.478;2023-09-19T12:38:27;0.68;;;0.20;;
23146;SDS011;11742;53.532;-1.478;2023-09-19T12:41:12;0.15;;;0.15;;
23146;SDS011;11742;53.532;-1.478;2023-09-19T12:43:57;0.10;;;0.10;;
23146;SDS011;11742;53.532;-1.478;2023-09-19T12:46:44;0.10;;;0.10;;
23146;SDS011;11742;53.532;-1.478;2023-09-19T12:49:29;0.10;;;0.10;;
23146;SDS011;11742;53.532;-1.478;2023-09-19T12:52:13;0.55;;;0.20;;
23146;SDS011;11742;53.532;-1.478;2023-09-19T12:54:57;0.10;;;0.10;;
23146;SDS011;11742;53.532;-1.478;2023-09-19T12:57:54;0.28;;;0.20;;
23146;SDS011;11742;53.532;-1.478;2023-09-19T13:01:01;1.63;;;0.20;;
23146;SDS011;11742;53.532;-1.478;2023-09-19T13:07:02;0.43;;;0.20;;
23146;SDS011;11742;53.532;-1.478;2023-09-19T13:10:02;0.10;;;0.10;;
23146;SDS011;11742;53.532;-1.478;2023-09-19T13:12:48;0.20;;;0.20;;
23146;SDS011;11742;53.532;-1.478;2023-09-19T13:15:32;0.25;;;0.25;;
23146;SDS011;11742;53.532;-1.478;2023-09-19T13:18:45;0.28;;;0.20;;
23146;SDS011;11742;53.532;-1.478;2023-09-19T13:21:42;0.40;;;0.35;;
23146;SDS011;11742;53.532;-1.478;2023-09-19T13:24:29;0.10;;;0.10;;
23146;SDS011;11742;53.532;-1.478;2023-09-19T13:27:14;1.05;;;0.20;;
23146;SDS011;11742;53.532;-1.478;2023-09-19T13:29:58;0.15;;;0.15;;
23146;SDS011;11742;53.532;-1.478;2023-09-19T13:32:43;0.25;;;0.20;;
23146;SDS011;11742;53.532;-1.478;2023-09-19T13:35:28;0.10;;;0.10;;
23146;SDS011;11742;53.532;-1.478;2023-09-19T13:38:12;0.17;;;0.17;;
23146;SDS011;11742;53.532;-1.478;2023-09-19T13:40:56;0.20;;;0.20;;
23146;SDS011;11742;53.532;-1.478;2023-09-19T13:43:43;0.20;;;0.20;;
23146;SDS011;11742;53.532;-1.478;2023-09-19T13:46:31;0.10;;;0.10;;
23146;SDS011;11742;53.532;-1.478;2023-09-19T13:49:18;0.10;;;0.10;;
23146;SDS011;11742;53.532;-1.478;2023-09-19T13:52:02;0.45;;;0.35;;
23146;SDS011;11742;53.532;-1.478;2023-09-19T13:54:52;0.30;;;0.20;;
23146;SDS011;11742;53.532;-1.478;2023-09-19T13:57:40;0.85;;;0.40;;
23146;SDS011;11742;53.532;-1.478;2023-09-19T14:00:24;0.40;;;0.20;;
23146;SDS011;11742;53.532;-1.478;2023-09-19T14:03:08;1.20;;;0.22;;
23146;SDS011;11742;53.532;-1.478;2023-09-19T14:05:54;0.80;;;0.28;;
23146;SDS011;11742;53.532;-1.478;2023-09-19T14:08:38;0.75;;;0.30;;
23146;SDS011;11742;53.532;-1.478;2023-09-19T14:11:23;0.30;;;0.30;;
23146;SDS011;11742;53.532;-1.478;2023-09-19T14:14:07;0.47;;;0.40;;
23146;SDS011;11742;53.532;-1.478;2023-09-19T14:16:51;2.40;;;0.65;;
23146;SDS011;11742;53.532;-1.478;2023-09-19T14:19:40;3.40;;;1.15;;
23146;SDS011;11742;53.532;-1.478;2023-09-19T14:22:26;2.47;;;0.43;;
23146;SDS011;11742;53.532;-1.478;2023-09-19T14:25:10;1.08;;;0.57;;
23146;SDS011;11742;53.532;-1.478;2023-09-19T14:27:54;1.45;;;0.30;;
23146;SDS011;11742;53.532;-1.478;2023-09-19T14:30:39;1.17;;;0.57;;
23146;SDS011;11742;53.532;-1.478;2023-09-19T14:33:23;1.25;;;0.50;;
23146;SDS011;11742;53.532;-1.478;2023-09-19T14:36:08;2.92;;;0.70;;
23146;SDS011;11742;53.532;-1.478;2023-09-19T14:38:54;2.05;;;0.55;;
23146;SDS011;11742;53.532;-1.478;2023-09-19T14:41:40;1.20;;;0.40;;
23146;SDS011;11742;53.532;-1.478;2023-09-19T14:44:24;1.60;;;0.43;;
23146;SDS011;11742;53.532;-1.478;2023-09-19T14:47:08;0.30;;;0.30;;
23146;SDS011;11742;53.532;-1.478;2023-09-19T14:49:57;1.70;;;0.52;;
23146;SDS011;11742;53.532;-1.478;2023-09-19T14:52:42;1.65;;;0.68;;
23146;SDS011;11742;53.532;-1.478;2023-09-19T14:55:27;1.10;;;0.70;;
23146;SDS011;11742;53.532;-1.478;2023-09-19T14:58:13;2.45;;;0.70;;
23146;SDS011;11742;53.532;-1.478;2023-09-19T15:01:02;2.50;;;0.65;;
23146;SDS011;11742;53.532;-1.478;2023-09-19T15:03:47;4.47;;;1.17;;
23146;SDS011;11742;53.532;-1.478;2023-09-19T15:06:33;3.40;;;0.90;;
23146;SDS011;11742;53.532;-1.478;2023-09-19T15:09:18;5.38;;;1.00;;
23146;SDS011;11742;53.532;-1.478;2023-09-19T15:12:02;1.75;;;0.80;;
23146;SDS011;11742;53.532;-1.478;2023-09-19T15:14:47;4.05;;;1.00;;
23146;SDS011;11742;53.532;-1.478;2023-09-19T15:17:31;3.80;;;1.08;;
23146;SDS011;11742;53.532;-1.478;2023-09-19T15:20:15;5.85;;;1.55;;
23146;SDS011;11742;53.532;-1.478;2023-09-19T15:23:01;6.10;;;1.55;;
23146;SDS011;11742;53.532;-1.478;2023-09-19T15:25:49;5.45;;;1.20;;
23146;SDS011;11742;53.532;-1.478;2023-09-19T15:28:34;7.53;;;1.52;;
23146;SDS011;11742;53.532;-1.478;2023-09-19T15:31:18;7.03;;;1.60;;
23146;SDS011;11742;53.532;-1.478;2023-09-19T15:34:03;6.68;;;1.63;;
23146;SDS011;11742;53.532;-1.478;2023-09-19T15:36:49;5.03;;;1.25;;
23146;SDS011;11742;53.532;-1.478;2023-09-19T15:39:33;7.07;;;1.63;;
23146;SDS011;11742;53.532;-1.478;2023-09-19T15:42:18;5.72;;;1.45;;
23146;SDS011;11742;53.532;-1.478;2023-09-19T15:45:02;8.07;;;1.50;;
23146;SDS011;11742;53.532;-1.478;2023-09-19T15:47:47;7.25;;;2.08;;
23146;SDS011;11742;53.532;-1.478;2023-09-19T15:50:31;5.78;;;1.42;;
23146;SDS011;11742;53.532;-1.478;2023-09-19T15:53:15;8.27;;;2.28;;
23146;SDS011;11742;53.532;-1.478;2023-09-19T15:56:05;13.80;;;2.50;;
23146;SDS011;11742;53.532;-1.478;2023-09-19T15:58:50;9.38;;;1.50;;
23146;SDS011;11742;53.532;-1.478;2023-09-19T16:01:37;8.68;;;1.80;;
23146;SDS011;11742;53.532;-1.478;2023-09-19T16:04:22;8.80;;;2.22;;
23146;SDS011;11742;53.532;-1.478;2023-09-19T16:07:06;10.10;;;2.60;;
23146;SDS011;11742;53.532;-1.478;2023-09-19T16:09:50;11.93;;;2.53;;
23146;SDS011;11742;53.532;-1.478;2023-09-19T16:12:36;7.55;;;2.03;;
23146;SDS011;11742;53.532;-1.478;2023-09-19T16:15:21;6.35;;;1.42;;
23146;SDS011;11742;53.532;-1.478;2023-09-19T16:18:06;5.60;;;1.60;;
23146;SDS011;11742;53.532;-1.478;2023-09-19T16:20:50;3.88;;;1.27;;
23146;SDS011;11742;53.532;-1.478;2023-09-19T16:23:34;9.10;;;2.05;;
23146;SDS011;11742;53.532;-1.478;2023-09-19T16:26:19;8.02;;;1.50;;
23146;SDS011;11742;53.532;-1.478;2023-09-19T16:29:04;7.07;;;2.20;;
23146;SDS011;11742;53.532;-1.478;2023-09-19T16:31:49;7.13;;;1.60;;
23146;SDS011;11742;53.532;-1.478;2023-09-19T16:34:33;3.95;;;1.23;;
23146;SDS011;11742;53.532;-1.478;2023-09-19T16:37:18;6.95;;;1.70;;
23146;SDS011;11742;53.532;-1.478;2023-09-19T16:40:02;8.00;;;1.58;;
23146;SDS011;11742;53.532;-1.478;2023-09-19T16:42:48;4.13;;;1.33;;
23146;SDS011;11742;53.532;-1.478;2023-09-19T16:45:32;6.70;;;1.73;;
23146;SDS011;11742;53.532;-1.478;2023-09-19T16:48:18;8.18;;;1.70;;
23146;SDS011;11742;53.532;-1.478;2023-09-19T16:51:02;5.53;;;1.40;;
23146;SDS011;11742;53.532;-1.478;2023-09-19T16:53:48;15.02;;;2.08;;
23146;SDS011;11742;53.532;-1.478;2023-09-19T16:56:36;15.40;;;2.15;;
23146;SDS011;11742;53.532;-1.478;2023-09-19T16:59:22;8.07;;;1.65;;
23146;SDS011;11742;53.532;-1.478;2023-09-19T17:02:07;6.40;;;1.48;;
23146;SDS011;11742;53.532;-1.478;2023-09-19T17:04:51;7.60;;;1.92;;
23146;SDS011;11742;53.532;-1.478;2023-09-19T17:07:37;8.88;;;1.80;;
23146;SDS011;11742;53.532;-1.478;2023-09-19T17:10:22;9.02;;;1.63;;
23146;SDS011;11742;53.532;-1.478;2023-09-19T17:13:06;4.40;;;1.23;;